Time;durP1;ratioP1;P1;durP2;ratioP2;P2;SDS_P1;SDS_P2;PMS_P1;PMS_P2;Temp;Humidity;BMP_temperature;BMP_pressure;BME280_temperature;BME280_humidity;BME280_pressure;Samples;Min_cycle;Max_cycle;Signal;HPM_P1;HPM_P2
2021/06/22 00:00:11;;;;;;;8.77;4.60;;;15.00;99.00;;;;;;5097991;28;20071;-90
2021/06/22 00:02:37;;;;;;;9.60;4.75;;;15.00;99.00;;;;;;5081165;28;20020;-91
2021/06/22 00:05:05;;;;;;;10.13;4.75;;;15.00;99.10;;;;;;5098383;28;20123;-93
2021/06/22 00:07:30;;;;;;;7.85;4.97;;;15.00;99.10;;;;;;5065055;28;20610;-91
2021/06/22 00:09:56;;;;;;;7.05;4.70;;;15.00;99.20;;;;;;5064775;28;20065;-92
2021/06/22 00:12:22;;;;;;;9.70;4.55;;;15.00;99.20;;;;;;5081633;28;20032;-91
2021/06/22 00:14:47;;;;;;;11.43;5.00;;;15.00;99.20;;;;;;5081660;28;20032;-92
2021/06/22 00:17:13;;;;;;;11.85;4.63;;;15.00;99.20;;;;;;5064681;28;20035;-91
2021/06/22 00:19:39;;;;;;;8.60;5.20;;;15.00;99.30;;;;;;5115606;28;20087;-90
2021/06/22 00:22:05;;;;;;;12.48;5.63;;;15.00;99.30;;;;;;5097847;28;20119;-90
2021/06/22 00:24:31;;;;;;;10.20;5.05;;;15.00;99.40;;;;;;5080795;28;20024;-90
2021/06/22 00:26:56;;;;;;;8.98;5.07;;;15.00;99.30;;;;;;5064334;28;20081;-89
2021/06/22 00:29:23;;;;;;;9.93;5.57;;;15.00;99.30;;;;;;5097669;28;20052;-90
2021/06/22 00:31:50;;;;;;;12.48;5.45;;;15.00;99.30;;;;;;5097980;28;20123;-90
2021/06/22 00:34:15;;;;;;;11.32;5.40;;;15.00;99.30;;;;;;5097526;28;20020;-91
2021/06/22 00:36:42;;;;;;;9.57;4.90;;;15.00;99.20;;;;;;5064133;28;20154;-91
2021/06/22 00:39:08;;;;;;;11.20;5.03;;;15.00;99.30;;;;;;5064068;28;20104;-90
2021/06/22 00:41:34;;;;;;;12.35;5.25;;;14.90;99.30;;;;;;5097692;28;20512;-90
2021/06/22 00:44:09;;;;;;;8.95;5.15;;;14.90;99.30;;;;;;5080504;28;20492;-91
2021/06/22 00:46:36;;;;;;;9.85;5.45;;;14.90;99.30;;;;;;5097359;28;20050;-91
2021/06/22 00:49:03;;;;;;;9.35;5.00;;;14.90;99.30;;;;;;5097639;28;20083;-91
2021/06/22 00:51:28;;;;;;;9.57;5.47;;;14.90;99.30;;;;;;5097537;28;20028;-92
2021/06/22 00:53:55;;;;;;;10.63;4.95;;;14.90;99.30;;;;;;5080219;28;20031;-91
2021/06/22 00:56:25;;;;;;;8.15;5.07;;;14.90;99.30;;;;;;5067912;28;20028;-91
2021/06/22 00:58:53;;;;;;;8.43;5.05;;;14.90;99.30;;;;;;5064184;28;20031;-91
2021/06/22 01:01:19;;;;;;;11.43;5.63;;;14.90;99.30;;;;;;5063778;28;20117;-90
2021/06/22 01:03:45;;;;;;;9.80;5.45;;;14.80;99.20;;;;;;5096950;28;20051;-91
2021/06/22 01:06:11;;;;;;;9.73;5.20;;;14.80;99.20;;;;;;5096904;28;20065;-92
2021/06/22 01:08:37;;;;;;;8.48;5.50;;;14.80;99.20;;;;;;5063533;28;20035;-90
2021/06/22 01:11:04;;;;;;;10.25;5.38;;;14.80;99.20;;;;;;5079939;28;20024;-89
2021/06/22 01:13:29;;;;;;;9.85;5.10;;;14.80;99.20;;;;;;5079589;28;20032;-91
2021/06/22 01:15:56;;;;;;;8.05;5.07;;;14.80;99.30;;;;;;5063105;28;20027;-92
2021/06/22 01:18:21;;;;;;;8.25;4.85;;;14.80;99.30;;;;;;5079189;28;20027;-90
2021/06/22 01:20:47;;;;;;;8.68;5.28;;;14.80;99.30;;;;;;5063279;28;20104;-90
2021/06/22 01:23:13;;;;;;;10.18;5.00;;;14.80;99.30;;;;;;5117414;28;20110;-90
2021/06/22 01:25:39;;;;;;;11.10;5.10;;;14.80;99.30;;;;;;5087809;28;20020;-90
2021/06/22 01:28:05;;;;;;;9.77;4.95;;;14.80;99.40;;;;;;5111923;22;20068;-85
2021/06/22 01:30:32;;;;;;;9.05;5.22;;;14.80;99.40;;;;;;5077779;28;20109;-85
2021/06/22 01:32:59;;;;;;;8.88;5.20;;;14.80;99.40;;;;;;5078139;28;20039;-85
2021/06/22 01:35:27;;;;;;;11.70;5.13;;;14.80;99.30;;;;;;5078099;28;20024;-85
2021/06/22 01:38:04;;;;;;;10.40;5.03;;;14.80;99.20;;;;;;5095225;28;20104;-85
2021/06/22 01:40:30;;;;;;;10.35;5.68;;;14.80;99.20;;;;;;5094944;28;20128;-85
2021/06/22 01:43:00;;;;;;;9.23;4.90;;;14.70;99.20;;;;;;5078101;28;20588;-86
2021/06/22 01:45:26;;;;;;;9.38;5.00;;;14.70;99.10;;;;;;5095054;28;20015;-85
2021/06/22 01:47:52;;;;;;;8.57;4.95;;;14.70;99.20;;;;;;5094855;28;20035;-86
2021/06/22 01:50:18;;;;;;;9.05;5.63;;;14.70;99.20;;;;;;5094981;28;20031;-85
2021/06/22 01:52:44;;;;;;;6.97;5.00;;;14.70;99.30;;;;;;5061101;28;20036;-85
2021/06/22 01:57:57;;;;;;;11.68;5.97;;;14.60;99.20;;;;;;5108079;28;20076;-85
2021/06/22 02:00:23;;;;;;;11.55;5.50;;;14.60;99.20;;;;;;5112683;28;20084;-85
2021/06/22 02:02:48;;;;;;;11.88;6.65;;;14.60;99.10;;;;;;5059054;28;20024;-85
2021/06/22 02:05:15;;;;;;;10.50;5.20;;;14.60;99.10;;;;;;5077677;28;20399;-85
2021/06/22 02:07:41;;;;;;;9.30;5.35;;;14.60;99.00;;;;;;5087381;28;20035;-85
2021/06/22 02:10:08;;;;;;;18.02;6.28;;;14.50;98.90;;;;;;5081706;28;20024;-85
2021/06/22 02:12:34;;;;;;;10.13;5.68;;;14.50;99.00;;;;;;5088488;28;20039;-85
2021/06/22 02:15:00;;;;;;;8.20;4.65;;;14.50;99.10;;;;;;5077628;28;20024;-86
2021/06/22 02:17:26;;;;;;;10.18;4.75;;;14.50;99.20;;;;;;5077712;28;20024;-86
2021/06/22 02:19:52;;;;;;;9.10;4.85;;;14.40;99.20;;;;;;5107463;28;20016;-86
2021/06/22 02:22:17;;;;;;;9.02;5.07;;;14.40;99.20;;;;;;5091156;28;20032;-85
2021/06/22 02:24:43;;;;;;;8.25;5.10;;;14.50;99.20;;;;;;5071330;28;20362;-85
2021/06/22 02:27:19;;;;;;;9.85;5.05;;;14.40;99.20;;;;;;5074074;28;20074;-85
2021/06/22 02:29:45;;;;;;;8.45;5.75;;;14.40;99.20;;;;;;5100025;28;20511;-85
2021/06/22 02:32:10;;;;;;;8.43;4.68;;;14.40;99.20;;;;;;5065288;28;20028;-85
2021/06/22 02:34:36;;;;;;;9.18;5.20;;;14.40;99.20;;;;;;5078113;28;20027;-85
2021/06/22 02:37:02;;;;;;;8.73;5.10;;;14.30;99.10;;;;;;5080314;28;20119;-85
2021/06/22 02:39:28;;;;;;;15.20;5.43;;;14.40;99.10;;;;;;5061049;28;20052;-85
2021/06/22 02:41:54;;;;;;;10.45;5.43;;;14.30;99.10;;;;;;5083863;28;20028;-85
2021/06/22 02:44:19;;;;;;;10.00;5.47;;;14.30;99.10;;;;;;5084325;28;20024;-85
2021/06/22 02:46:45;;;;;;;12.05;5.55;;;14.30;99.10;;;;;;5064434;28;20034;-85
2021/06/22 02:49:10;;;;;;;8.18;4.85;;;14.30;99.20;;;;;;5097674;28;20032;-84
2021/06/22 02:51:36;;;;;;;10.45;5.75;;;14.30;99.30;;;;;;5097849;28;20473;-85
2021/06/22 02:54:02;;;;;;;10.45;5.57;;;14.30;99.20;;;;;;5112532;28;20088;-85
2021/06/22 02:56:28;;;;;;;9.18;5.30;;;14.20;99.20;;;;;;5080867;28;20028;-85
2021/06/22 02:58:53;;;;;;;8.93;5.30;;;14.20;99.10;;;;;;5083105;28;20429;-85
2021/06/22 03:01:19;;;;;;;10.02;4.90;;;14.20;99.10;;;;;;5097650;28;20069;-84
2021/06/22 03:03:44;;;;;;;9.00;4.75;;;14.20;99.20;;;;;;5080598;28;20024;-85
2021/06/22 03:06:10;;;;;;;8.50;5.25;;;14.20;99.20;;;;;;5063990;28;20393;-85
2021/06/22 03:08:36;;;;;;;10.18;5.50;;;14.20;99.20;;;;;;5097331;28;20633;-85
2021/06/22 03:11:01;;;;;;;9.57;4.93;;;14.20;99.20;;;;;;5097319;28;20293;-85
2021/06/22 03:13:27;;;;;;;11.73;4.82;;;14.10;99.20;;;;;;5081256;28;20047;-86
2021/06/22 03:15:53;;;;;;;8.05;4.93;;;14.20;99.20;;;;;;5097255;28;20031;-85
2021/06/22 03:18:18;;;;;;;7.80;5.00;;;14.20;99.20;;;;;;5080675;28;20016;-86
2021/06/22 03:20:44;;;;;;;8.75;4.43;;;14.10;99.30;;;;;;5080527;28;20020;-86
2021/06/22 03:23:10;;;;;;;8.73;4.38;;;14.10;99.30;;;;;;5063971;28;20038;-85
2021/06/22 03:25:35;;;;;;;10.23;5.13;;;14.10;99.30;;;;;;5097377;28;20028;-85
2021/06/22 03:28:02;;;;;;;7.22;4.50;;;14.10;99.30;;;;;;5080758;28;20024;-85
2021/06/22 03:30:28;;;;;;;9.35;5.25;;;14.10;99.30;;;;;;5074705;28;20491;-85
2021/06/22 03:32:54;;;;;;;12.75;6.03;;;14.10;99.30;;;;;;5080273;28;20027;-85
2021/06/22 03:35:19;;;;;;;9.13;4.82;;;14.10;99.40;;;;;;5080452;28;20028;-85
2021/06/22 03:37:45;;;;;;;10.27;5.30;;;14.10;99.40;;;;;;5080017;28;20059;-86
2021/06/22 03:40:14;;;;;;;9.98;4.70;;;14.10;99.40;;;;;;5063823;28;20059;-86
2021/06/22 03:42:40;;;;;;;8.85;4.85;;;14.10;99.40;;;;;;5076097;28;20024;-86
2021/06/22 03:45:08;;;;;;;7.55;4.50;;;14.10;99.40;;;;;;5055403;28;20035;-85
2021/06/22 03:47:34;;;;;;;8.18;4.50;;;14.10;99.50;;;;;;5099738;28;20030;-86
2021/06/22 03:50:01;;;;;;;10.18;5.65;;;14.10;99.50;;;;;;5079947;28;20024;-85
2021/06/22 03:52:27;;;;;;;9.60;5.07;;;14.10;99.50;;;;;;5096720;28;20031;-85
2021/06/22 03:54:53;;;;;;;7.10;4.53;;;14.10;99.50;;;;;;5079648;28;20549;-85
2021/06/22 03:57:19;;;;;;;9.10;5.20;;;14.20;99.50;;;;;;5062792;28;20530;-86
2021/06/22 03:59:44;;;;;;;7.85;4.65;;;14.10;99.50;;;;;;5059722;28;20020;-85
2021/06/22 04:02:10;;;;;;;10.48;4.80;;;14.10;99.50;;;;;;5078188;28;20525;-85
2021/06/22 04:04:35;;;;;;;9.48;4.65;;;14.10;99.50;;;;;;5075864;28;20111;-85
2021/06/22 04:07:01;;;;;;;8.68;4.78;;;14.10;99.50;;;;;;5054439;28;20488;-85
2021/06/22 04:09:33;;;;;;;9.25;4.05;;;14.10;99.40;;;;;;5079279;28;20500;-85
2021/06/22 04:11:59;;;;;;;8.00;4.30;;;14.10;99.40;;;;;;5076194;28;20029;-85
2021/06/22 04:14:24;;;;;;;10.15;5.05;;;14.10;99.30;;;;;;5051084;28;20089;-86
2021/06/22 04:16:50;;;;;;;10.00;3.85;;;14.10;99.20;;;;;;5089345;28;20135;-85
2021/06/22 04:19:16;;;;;;;10.77;4.47;;;14.10;99.30;;;;;;5062318;28;20031;-85
2021/06/22 04:21:42;;;;;;;8.48;4.93;;;14.10;99.30;;;;;;5076184;28;20031;-86
2021/06/22 04:24:08;;;;;;;9.82;4.80;;;14.10;99.30;;;;;;5054813;28;20071;-85
2021/06/22 04:26:33;;;;;;;10.98;5.38;;;14.10;99.30;;;;;;5095840;28;20027;-85
2021/06/22 04:29:00;;;;;;;9.70;5.70;;;14.00;99.30;;;;;;5114228;28;20043;-85
2021/06/22 04:31:26;;;;;;;8.10;5.60;;;14.10;99.40;;;;;;5095621;28;20047;-85
2021/06/22 04:33:52;;;;;;;9.10;5.80;;;14.10;99.40;;;;;;5072145;28;20473;-85
2021/06/22 04:36:17;;;;;;;11.13;6.60;;;14.00;99.30;;;;;;5075914;28;20040;-86
2021/06/22 04:38:43;;;;;;;10.63;6.35;;;14.00;99.30;;;;;;5062080;28;20481;-85
2021/06/22 04:41:09;;;;;;;10.18;6.13;;;14.00;99.40;;;;;;5074147;28;20133;-85
2021/06/22 04:43:35;;;;;;;9.48;6.57;;;14.00;99.30;;;;;;5076307;28;20026;-86
2021/06/22 04:46:00;;;;;;;11.30;6.72;;;14.00;99.40;;;;;;5078902;28;20019;-85
2021/06/22 04:48:26;;;;;;;11.13;7.03;;;14.10;99.40;;;;;;5071947;28;20028;-85
2021/06/22 04:50:57;;;;;;;12.23;7.65;;;14.10;99.30;;;;;;5055631;28;20025;-85
2021/06/22 04:53:23;;;;;;;16.13;8.20;;;14.10;99.30;;;;;;5067479;28;20397;-85
2021/06/22 04:55:48;;;;;;;12.18;7.65;;;14.00;99.40;;;;;;5106993;28;20027;-85
2021/06/22 04:58:14;;;;;;;11.98;7.60;;;14.00;99.20;;;;;;5070951;28;20089;-85
2021/06/22 05:00:40;;;;;;;12.23;7.22;;;14.00;99.20;;;;;;5043332;28;20450;-86
2021/06/22 05:03:06;;;;;;;14.48;8.07;;;14.10;99.30;;;;;;5063824;28;20082;-85
2021/06/22 05:05:32;;;;;;;13.75;7.63;;;14.10;99.30;;;;;;5062810;28;20024;-85
2021/06/22 05:07:58;;;;;;;11.48;7.78;;;14.10;99.30;;;;;;5087461;28;20115;-85
2021/06/22 05:10:24;;;;;;;13.02;8.27;;;14.10;99.20;;;;;;5058112;28;20032;-85
2021/06/22 05:12:50;;;;;;;12.73;7.20;;;14.10;99.30;;;;;;5056745;28;20489;-85
2021/06/22 05:15:16;;;;;;;11.60;8.30;;;14.10;99.30;;;;;;5074857;28;20031;-84
2021/06/22 05:17:42;;;;;;;12.82;8.23;;;14.10;99.30;;;;;;5098270;28;20111;-85
2021/06/22 05:20:08;;;;;;;13.38;8.60;;;14.10;99.30;;;;;;5053033;28;20019;-85
2021/06/22 05:22:34;;;;;;;11.88;8.15;;;14.20;99.40;;;;;;5088782;28;20027;-85
2021/06/22 05:25:00;;;;;;;12.35;8.55;;;14.20;99.30;;;;;;5086252;28;20020;-85
2021/06/22 05:27:26;;;;;;;13.20;8.70;;;14.20;99.30;;;;;;5094152;28;20078;-84
2021/06/22 05:29:52;;;;;;;11.20;7.90;;;14.20;99.30;;;;;;5075040;28;20680;-85
2021/06/22 05:32:17;;;;;;;13.63;8.75;;;14.20;99.30;;;;;;5057857;28;20032;-85
2021/06/22 05:34:43;;;;;;;10.35;7.88;;;14.30;99.40;;;;;;5038015;28;20024;-85
2021/06/22 05:37:09;;;;;;;12.27;8.60;;;14.30;99.40;;;;;;5048035;28;20489;-85
2021/06/22 05:39:35;;;;;;;12.48;8.90;;;14.30;99.30;;;;;;5081732;28;20127;-85
2021/06/22 05:42:01;;;;;;;13.82;8.95;;;14.30;99.30;;;;;;5096012;28;20114;-84
2021/06/22 05:44:27;;;;;;;13.13;8.10;;;14.30;99.30;;;;;;5061354;28;20449;-85
2021/06/22 05:46:53;;;;;;;13.27;8.80;;;14.40;99.30;;;;;;5056701;28;20017;-85
2021/06/22 05:49:18;;;;;;;10.50;8.10;;;14.40;99.30;;;;;;5037630;28;20033;-85
2021/06/22 05:51:45;;;;;;;12.40;8.80;;;14.40;99.30;;;;;;5057863;28;20059;-85
2021/06/22 05:54:11;;;;;;;13.80;8.85;;;14.40;99.20;;;;;;5063819;28;20070;-85
2021/06/22 05:56:37;;;;;;;12.82;8.13;;;14.40;99.10;;;;;;5094217;28;20047;-85
2021/06/22 05:59:03;;;;;;;10.38;7.35;;;14.50;99.20;;;;;;5077316;28;20503;-84
2021/06/22 06:01:29;;;;;;;12.23;8.30;;;14.50;99.20;;;;;;5074693;28;20083;-84
2021/06/22 06:03:55;;;;;;;12.15;8.25;;;14.50;99.20;;;;;;5056108;28;20016;-85
2021/06/22 06:06:21;;;;;;;14.52;8.02;;;14.60;99.30;;;;;;5055078;28;20043;-85
2021/06/22 06:09:05;;;;;;;10.40;7.90;;;14.60;99.40;;;;;;5058159;28;20024;-84
2021/06/22 06:11:31;;;;;;;10.05;7.88;;;14.60;99.40;;;;;;5094101;28;20016;-84
2021/06/22 06:13:56;;;;;;;10.38;7.72;;;14.70;99.50;;;;;;5073962;28;20036;-85
2021/06/22 06:16:22;;;;;;;11.13;7.88;;;14.70;99.50;;;;;;5057520;28;20048;-86
2021/06/22 06:19:00;;;;;;;8.88;6.93;;;14.70;99.50;;;;;;5077205;28;20032;-85
2021/06/22 06:21:26;;;;;;;12.57;7.28;;;14.80;99.50;;;;;;5046448;28;20442;-85
2021/06/22 06:23:55;;;;;;;10.70;7.72;;;14.80;99.60;;;;;;5041250;28;20024;-85
2021/06/22 06:26:22;;;;;;;11.90;8.25;;;14.90;99.50;;;;;;5057364;28;20032;-86
2021/06/22 06:28:51;;;;;;;10.98;8.60;;;15.00;99.50;;;;;;5078747;28;20171;-85
2021/06/22 06:31:18;;;;;;;12.63;8.35;;;15.00;99.40;;;;;;5090419;28;20032;-85
2021/06/22 06:33:43;;;;;;;11.63;8.80;;;15.00;99.30;;;;;;5105287;28;20032;-85
2021/06/22 06:36:09;;;;;;;12.27;8.90;;;15.10;99.30;;;;;;5080552;28;20472;-85
2021/06/22 06:38:35;;;;;;;12.23;9.15;;;15.10;99.30;;;;;;5060710;28;20044;-85
2021/06/22 06:41:01;;;;;;;12.77;9.07;;;15.10;99.20;;;;;;5085382;28;20495;-85
2021/06/22 06:43:26;;;;;;;12.10;9.55;;;15.20;99.20;;;;;;5093805;28;20023;-84
2021/06/22 06:45:52;;;;;;;10.98;9.20;;;15.20;99.20;;;;;;5093832;28;20038;-85
2021/06/22 06:48:18;;;;;;;13.35;9.68;;;15.20;99.20;;;;;;5071369;28;20064;-85
2021/06/22 06:50:51;;;;;;;13.40;9.35;;;15.30;99.20;;;;;;5101891;28;20080;-85
2021/06/22 06:53:17;;;;;;;12.70;9.32;;;15.30;99.20;;;;;;5093785;28;20045;-85
2021/06/22 06:55:43;;;;;;;13.60;9.88;;;15.30;99.20;;;;;;5097835;28;20469;-85
2021/06/22 06:58:09;;;;;;;10.23;8.50;;;15.40;99.20;;;;;;5094447;28;20389;-85
2021/06/22 07:00:37;;;;;;;12.63;10.13;;;15.40;99.10;;;;;;5093783;28;20183;-85
2021/06/22 07:03:04;;;;;;;13.25;9.70;;;15.40;99.10;;;;;;5098812;28;20021;-85
2021/06/22 07:05:31;;;;;;;12.80;10.02;;;15.50;99.10;;;;;;5068081;28;20514;-85
2021/06/22 07:07:57;;;;;;;12.68;10.07;;;15.50;99.00;;;;;;5093740;28;20114;-85
2021/06/22 07:10:23;;;;;;;13.27;10.38;;;15.50;99.30;;;;;;5077201;28;20046;-85
2021/06/22 07:12:49;;;;;;;13.60;10.00;;;15.60;98.90;;;;;;5076684;28;20149;-85
2021/06/22 07:15:15;;;;;;;15.43;9.82;;;15.60;99.00;;;;;;5093853;28;20504;-85
2021/06/22 07:17:41;;;;;;;12.30;9.82;;;15.60;98.80;;;;;;5065490;28;20019;-85
2021/06/22 07:20:08;;;;;;;15.40;10.43;;;15.70;98.80;;;;;;5080650;28;20024;-85
2021/06/22 07:22:35;;;;;;;12.27;9.45;;;15.70;98.80;;;;;;5097513;28;20026;-85
2021/06/22 07:25:01;;;;;;;13.85;10.52;;;15.70;98.80;;;;;;5111323;28;20027;-85
2021/06/22 07:27:27;;;;;;;14.30;10.40;;;15.80;98.80;;;;;;5097148;28;20365;-85
2021/06/22 07:29:52;;;;;;;13.57;10.85;;;15.80;98.70;;;;;;5084909;23;20055;-89
2021/06/22 07:32:18;;;;;;;15.35;11.10;;;15.80;98.60;;;;;;5081297;28;20038;-90
2021/06/22 07:34:44;;;;;;;16.33;11.50;;;15.90;98.50;;;;;;5077246;28;20031;-90
2021/06/22 07:37:10;;;;;;;13.10;10.98;;;15.90;98.40;;;;;;5071688;28;20403;-90
2021/06/22 07:39:35;;;;;;;13.65;10.13;;;15.90;98.30;;;;;;5065914;28;20020;-91
2021/06/22 07:42:01;;;;;;;15.05;11.02;;;15.90;98.30;;;;;;5069282;28;20015;-89
2021/06/22 07:44:27;;;;;;;14.60;11.40;;;16.00;98.20;;;;;;5074695;28;20036;-90
2021/06/22 07:46:52;;;;;;;13.85;10.52;;;16.00;98.20;;;;;;5064252;28;20032;-90
2021/06/22 07:49:18;;;;;;;13.77;11.60;;;16.00;98.10;;;;;;5074702;28;20101;-91
2021/06/22 07:51:44;;;;;;;13.43;11.00;;;16.10;98.10;;;;;;5041284;28;20043;-89
2021/06/22 07:54:09;;;;;;;13.13;10.95;;;16.10;98.10;;;;;;5050910;28;20027;-91
2021/06/22 07:56:35;;;;;;;14.05;11.75;;;16.10;98.10;;;;;;5063615;28;20024;-89
2021/06/22 07:59:01;;;;;;;16.67;11.18;;;16.10;98.00;;;;;;5072375;28;20027;-90
2021/06/22 08:01:26;;;;;;;13.57;11.35;;;16.20;98.00;;;;;;5080967;28;20065;-90
2021/06/22 08:03:53;;;;;;;12.90;11.18;;;16.20;98.10;;;;;;5077174;28;20025;-89
2021/06/22 08:06:18;;;;;;;14.73;12.07;;;16.30;98.10;;;;;;5069846;28;20462;-89
2021/06/22 08:08:44;;;;;;;13.75;10.90;;;16.30;98.00;;;;;;5068709;28;20049;-90
2021/06/22 08:11:10;;;;;;;12.18;10.45;;;16.40;97.90;;;;;;5066395;28;20159;-91
2021/06/22 08:13:36;;;;;;;14.77;10.77;;;16.40;97.90;;;;;;5085896;28;20020;-90
2021/06/22 08:16:03;;;;;;;13.43;11.43;;;16.40;97.90;;;;;;5060804;28;20496;-90
2021/06/22 08:18:29;;;;;;;13.48;11.40;;;16.50;97.80;;;;;;5071125;28;20118;-89
2021/06/22 08:20:54;;;;;;;13.25;11.55;;;16.60;97.60;;;;;;5046883;28;20027;-90
2021/06/22 08:23:21;;;;;;;13.68;11.00;;;16.60;97.40;;;;;;5077559;28;20032;-90
2021/06/22 08:25:47;;;;;;;12.85;11.50;;;16.60;97.50;;;;;;5080037;28;20107;-91
2021/06/22 08:28:13;;;;;;;13.55;11.73;;;16.60;97.50;;;;;;5115574;28;20045;-90
2021/06/22 08:30:39;;;;;;;15.10;13.07;;;16.70;97.40;;;;;;5068580;28;20036;-91
2021/06/22 08:33:08;;;;;;;13.35;11.95;;;16.70;97.40;;;;;;5091330;28;20031;-91
2021/06/22 08:35:36;;;;;;;13.60;11.73;;;16.80;97.40;;;;;;5088001;28;20457;-90
2021/06/22 08:38:10;;;;;;;14.98;12.13;;;16.80;97.40;;;;;;5080831;28;20024;-90
2021/06/22 08:40:41;;;;;;;14.27;11.93;;;16.80;97.30;;;;;;5097433;28;20020;-91
2021/06/22 08:43:10;;;;;;;14.52;11.75;;;16.90;97.30;;;;;;5082881;28;20119;-90
2021/06/22 08:45:36;;;;;;;13.93;12.30;;;17.00;97.20;;;;;;5065340;28;20029;-91
2021/06/22 08:48:08;;;;;;;16.60;12.15;;;17.00;97.10;;;;;;5074343;28;20024;-90
2021/06/22 08:50:35;;;;;;;14.52;12.10;;;17.00;96.90;;;;;;5077689;28;20082;-91
2021/06/22 08:53:00;;;;;;;15.48;12.98;;;17.10;96.80;;;;;;5091323;28;20020;-90
2021/06/22 08:55:27;;;;;;;14.90;12.93;;;17.10;96.50;;;;;;5077578;28;20469;-91
2021/06/22 08:58:04;;;;;;;16.63;13.48;;;17.10;96.50;;;;;;5073906;28;20031;-91
2021/06/22 09:00:35;;;;;;;17.42;12.65;;;17.10;96.40;;;;;;5086208;28;20030;-92
2021/06/22 09:03:04;;;;;;;15.73;11.98;;;17.10;96.50;;;;;;5095260;28;20107;-90
2021/06/22 09:05:30;;;;;;;13.43;11.77;;;17.10;96.50;;;;;;5103508;28;20491;-90
2021/06/22 09:07:57;;;;;;;12.75;10.88;;;17.10;96.50;;;;;;5093763;28;20016;-91
2021/06/22 09:10:25;;;;;;;13.82;10.95;;;17.20;96.60;;;;;;5095212;28;20024;-90
2021/06/22 09:12:52;;;;;;;12.65;10.30;;;17.20;96.20;;;;;;5076576;28;20032;-90
2021/06/22 09:18:44;;;;;;;12.73;9.73;;;17.30;96.10;;;;;;5109860;28;20084;-91
2021/06/22 09:21:22;;;;;;;11.02;9.27;;;17.40;96.30;;;;;;5082227;28;20019;-90
2021/06/22 09:23:50;;;;;;;12.32;9.82;;;17.50;96.40;;;;;;5113730;28;20047;-90
2021/06/22 09:26:17;;;;;;;12.02;9.90;;;17.60;96.30;;;;;;5064115;28;20469;-90
2021/06/22 09:28:43;;;;;;;11.32;9.23;;;17.70;96.30;;;;;;5108693;28;20074;-90
2021/06/22 09:31:18;;;;;;;13.23;10.10;;;17.70;96.00;;;;;;5063416;28;20139;-90
2021/06/22 09:33:50;;;;;;;10.65;9.27;;;17.80;95.80;;;;;;5076773;28;20036;-91
2021/06/22 09:36:20;;;;;;;11.48;9.23;;;17.80;95.90;;;;;;5114702;28;20468;-90
2021/06/22 09:38:52;;;;;;;10.07;9.07;;;17.90;95.80;;;;;;5098733;28;20042;-90
2021/06/22 09:41:29;;;;;;;10.02;8.52;;;18.00;95.70;;;;;;5069267;28;20007;-90
2021/06/22 09:44:00;;;;;;;9.05;8.15;;;18.10;95.60;;;;;;5067935;28;20095;-90
2021/06/22 09:46:34;;;;;;;;;;;18.10;95.50;;;;;;5096765;28;20027;-91
2021/06/22 09:49:01;;;;;;;10.80;8.70;;;18.10;94.80;;;;;;5096634;28;19911;-90
2021/06/22 09:51:31;;;;;;;11.13;8.52;;;18.20;95.20;;;;;;5113207;28;20064;-91
2021/06/22 09:54:25;;;;;;;10.43;8.50;;;18.20;94.70;;;;;;5113077;28;20031;-90
2021/06/22 09:56:51;;;;;;;10.18;7.93;;;18.30;94.40;;;;;;5078734;28;20032;-91
2021/06/22 09:59:17;;;;;;;10.40;8.38;;;18.30;94.70;;;;;;5090039;28;20461;-89
2021/06/22 10:01:43;;;;;;;10.90;8.63;;;18.30;94.60;;;;;;5067890;28;20008;-90
2021/06/22 10:04:19;;;;;;;12.07;8.65;;;18.40;94.70;;;;;;5060148;28;20036;-90
2021/06/22 10:07:22;;;;;;;9.85;7.40;;;18.40;94.60;;;;;;5096050;28;20031;-90
2021/06/22 10:09:53;;;;;;;8.73;7.32;;;18.50;94.60;;;;;;5080716;28;20015;-90
2021/06/22 10:12:20;;;;;;;10.15;7.82;;;18.60;94.60;;;;;;5102879;28;20418;-91
2021/06/22 10:14:51;;;;;;;9.27;7.00;;;18.60;94.30;;;;;;5075979;28;20069;-90
2021/06/22 10:17:20;;;;;;;7.63;6.43;;;18.70;94.20;;;;;;5088091;28;20455;-90
2021/06/22 10:19:48;;;;;;;9.63;7.95;;;18.70;93.90;;;;;;5091953;28;20016;-90
2021/06/22 10:22:16;;;;;;;11.93;9.15;;;18.70;93.70;;;;;;5069590;28;20035;-90
2021/06/22 10:24:44;;;;;;;9.48;8.48;;;18.70;93.40;;;;;;5095533;28;20385;-90
2021/06/22 10:27:12;;;;;;;10.75;8.65;;;18.70;93.30;;;;;;5085083;28;20107;-90
2021/06/22 10:29:38;;;;;;;11.05;9.00;;;18.80;93.30;;;;;;5109638;28;20059;-91
2021/06/22 10:32:05;;;;;;;10.57;8.65;;;18.80;92.80;;;;;;5062670;28;20123;-90
2021/06/22 10:34:31;;;;;;;8.60;6.97;;;18.90;92.50;;;;;;5090524;28;20032;-90
2021/06/22 10:37:13;;;;;;;8.50;6.80;;;18.80;91.20;;;;;;5082777;28;20052;-90
2021/06/22 10:39:48;;;;;;;9.85;6.82;;;18.80;91.70;;;;;;5088076;28;20469;-90
2021/06/22 10:42:14;;;;;;;10.23;6.80;;;18.90;91.90;;;;;;5081483;28;20030;-91
2021/06/22 10:44:44;;;;;;;8.85;6.22;;;18.90;91.20;;;;;;5099456;28;20024;-91
2021/06/22 10:47:37;;;;;;;8.38;6.40;;;18.90;91.30;;;;;;5108131;28;20036;-91
2021/06/22 10:50:21;;;;;;;9.23;6.57;;;19.00;91.60;;;;;;5075297;28;20024;-90
2021/06/22 10:52:58;;;;;;;9.70;7.07;;;19.00;91.90;;;;;;5083321;28;20020;-90
2021/06/22 10:55:31;;;;;;;8.88;7.00;;;19.10;91.90;;;;;;5079527;28;20078;-91
2021/06/22 10:57:57;;;;;;;8.38;6.22;;;19.10;91.60;;;;;;5079451;28;20048;-90
2021/06/22 11:00:43;;;;;;;7.50;6.43;;;19.20;91.90;;;;;;5110723;28;20031;-90
2021/06/22 11:03:10;;;;;;;8.02;6.15;;;19.30;90.10;;;;;;4996509;28;20033;-90
2021/06/22 11:05:41;;;;;;;8.93;6.18;;;19.30;90.80;;;;;;5064104;28;20040;-90
2021/06/22 11:08:16;;;;;;;9.63;6.00;;;19.30;90.40;;;;;;5076499;28;20020;-91
2021/06/22 11:11:08;;;;;;;8.77;5.40;;;19.40;90.40;;;;;;5089618;28;20051;-90
2021/06/22 11:13:33;;;;;;;8.13;5.68;;;19.50;90.70;;;;;;5118967;28;20028;-91
2021/06/22 11:16:05;;;;;;;8.85;5.53;;;19.50;90.80;;;;;;5125591;28;20032;-90
2021/06/22 11:18:56;;;;;;;6.90;5.32;;;19.50;90.70;;;;;;5067221;28;20024;-90
2021/06/22 11:21:37;;;;;;;8.13;5.50;;;19.60;90.50;;;;;;5111092;28;20027;-92
2021/06/22 11:24:21;;;;;;;7.18;5.43;;;19.70;90.30;;;;;;5111039;28;20110;-91
2021/06/22 11:26:47;;;;;;;8.68;6.07;;;19.70;90.00;;;;;;5112218;28;20034;-91
2021/06/22 11:29:14;;;;;;;8.48;5.50;;;19.80;89.90;;;;;;5092505;28;20401;-91
2021/06/22 11:31:52;;;;;;;8.43;5.75;;;19.80;89.60;;;;;;5085140;28;20111;-90
2021/06/22 11:34:29;;;;;;;7.03;5.30;;;19.80;88.20;;;;;;5075085;28;20023;-91
2021/06/22 11:37:05;;;;;;;7.13;5.45;;;19.90;88.90;;;;;;5101238;28;20020;-91
2021/06/22 11:43:08;;;;;;;7.40;4.82;;;20.00;89.60;;;;;;5101251;28;20526;-91
2021/06/22 11:45:34;;;;;;;8.68;4.47;;;20.10;88.90;;;;;;5076248;28;20449;-91
2021/06/22 11:48:02;;;;;;;6.57;4.53;;;20.10;89.20;;;;;;5087971;28;20020;-91
2021/06/22 11:50:29;;;;;;;6.45;4.38;;;20.20;87.50;;;;;;5068538;28;20035;-91
2021/06/22 11:53:01;;;;;;;7.32;4.95;;;20.20;87.60;;;;;;5067980;28;20049;-92
2021/06/22 11:55:27;;;;;;;8.48;5.10;;;20.30;86.60;;;;;;5091625;28;20055;-91
2021/06/22 11:57:58;;;;;;;7.65;4.80;;;20.30;87.50;;;;;;5097192;28;20048;-90
2021/06/22 12:00:28;;;;;;;7.78;4.25;;;20.30;87.90;;;;;;5092448;28;20078;-89
2021/06/22 12:03:01;;;;;;;7.68;4.32;;;20.30;88.20;;;;;;5089009;28;20116;-91
2021/06/22 12:05:28;;;;;;;6.28;4.45;;;20.40;87.60;;;;;;5077698;28;20100;-91
2021/06/22 12:08:03;;;;;;;5.82;4.38;;;20.50;87.90;;;;;;5096000;28;20036;-91
2021/06/22 12:10:47;;;;;;;7.78;5.00;;;20.50;87.40;;;;;;5071873;28;20039;-91
2021/06/22 12:13:33;;;;;;;7.05;4.60;;;20.60;85.90;;;;;;5069450;28;20072;-91
2021/06/22 12:16:13;;;;;;;8.50;5.25;;;20.60;86.30;;;;;;5067191;28;20032;-90
2021/06/22 12:18:38;;;;;;;6.53;4.43;;;20.70;84.30;;;;;;5078224;28;20027;-91
2021/06/22 12:21:05;;;;;;;7.85;4.45;;;20.70;85.80;;;;;;5078031;28;20024;-91
2021/06/22 12:23:31;;;;;;;9.55;4.22;;;20.70;85.20;;;;;;5042195;28;20020;-91
2021/06/22 12:25:56;;;;;;;7.30;4.80;;;20.80;84.90;;;;;;5091770;28;20389;-92
2021/06/22 12:28:24;;;;;;;6.88;4.45;;;20.80;83.60;;;;;;5058637;28;20393;-91
2021/06/22 12:30:56;;;;;;;7.00;5.00;;;20.90;83.30;;;;;;5056022;28;20080;-92
2021/06/22 12:33:24;;;;;;;5.90;4.10;;;20.90;82.60;;;;;;5066033;28;20087;-91
2021/06/22 12:35:54;;;;;;;5.40;3.97;;;21.00;83.10;;;;;;5078224;28;20108;-91
2021/06/22 12:38:21;;;;;;;6.75;4.90;;;21.00;83.50;;;;;;5064664;28;20035;-91
2021/06/22 12:40:56;;;;;;;5.85;4.95;;;21.00;81.80;;;;;;5061689;28;20035;-91
2021/06/22 12:43:38;;;;;;;6.40;4.30;;;21.00;81.50;;;;;;5072115;28;20051;-90
2021/06/22 12:46:04;;;;;;;6.05;4.40;;;21.10;80.50;;;;;;5075744;28;20035;-91
2021/06/22 12:48:30;;;;;;;5.95;3.97;;;21.10;81.50;;;;;;5041438;28;20024;-91
2021/06/22 12:50:56;;;;;;;6.32;3.85;;;21.20;81.20;;;;;;5036929;28;20049;-89
2021/06/22 12:53:23;;;;;;;5.65;3.92;;;21.20;81.10;;;;;;5056157;28;20025;-89